Kalamazoo, MI (49003)

3:44 AM EDT on August 03, 2015 (GMT -0400)
Northgate | | Change Station
CLOSE
Current Station
Personal Weather Station
Location: Kalamazoo, MI
Elevation: 951 ft
Nearby Weather Stations

Elev 951 ft 42.32 °N, 85.63 °W | Updated 4 minutes ago

Mostly Cloudy
Mostly Cloudy
64.4 °F
Feels Like 64.4 °F
N
2.2
Wind Variable Wind from South

Today
High -- | Low -- °F
--% Chance of Precip.
Yesterday
High -- | Low -- °F
Precip. -- in
6:37 AM 8:59 PM
Waning Gibbous, 88% visible
Pressure 29.74 in
Visibility 10.0 miles
Clouds Overcast 1400 ft
Dew Point 64 °F
Humidity 99%
Rainfall 0.00 in
Snow Depth Not available.
UV 0 out of 12
Pollen 7.90 out of 12
Air Quality Not available.
Flu Activity Not available.
SPECI KAZO 030729Z AUTO 26004KT 10SM OVC014 18/16 A2974 RMK AO2 T01830161

More Conditions Fewer Conditions

Pressure 29.74 in
Visibility 10.0 miles
Clouds Overcast 1400 ft
Dew Point 64 °F
Humidity 99%
Rainfall 0.00 in
Snow Depth Not available.
UV 0 out of 12
Pollen 7.90 out of 12
Air Quality Not available.
Flu Activity Not available.
SPECI KAZO 030729Z AUTO 26004KT 10SM OVC014 18/16 A2974 RMK AO2 T01830161

More Conditions Fewer Conditions

10-Day Weather Forecast

×

Almanac

Astronomy

Aug. 03, 2015 Rise Set
Actual Time
Civil Twilight
Nautical Twilight
Astronomical Twilight
Moon
Length of Visible Light
Length of Day
Tomorrow will be .
, % of the Moon is Illuminated

Today's Extremes

State Highs State Lows

Community

WunderPhotos

Upload Photos

1,843,595 photos uploaded!

WunderBlogs® & News

Nearby

Air Quality

  Air Quality AQ Index Pollutant
Not available.

Snow Depth

Station Depth Elevation

Earthquake Activity

City Distance Mag. Time & Date
Minimum magnitude displayed is 2.5.

Coastal Water Temperatures

Place Temperature

Stations

Nearby Weather Stations

Station Location Temp. Windchill Dew Point Humidity Wind Precip. Elev Updated Type